createdAt,value
2022-08-05T00:00:23.752Z,20.60
2022-08-05T00:02:14.498Z,20.60
2022-08-05T00:03:49.754Z,20.60
2022-08-05T00:06:02.844Z,20.60
2022-08-05T00:07:21.715Z,20.60
2022-08-05T00:09:00.990Z,20.50
2022-08-05T00:10:33.466Z,20.50
2022-08-05T00:12:06.036Z,20.50
2022-08-05T00:13:45.712Z,20.50
2022-08-05T00:15:58.258Z,20.40
2022-08-05T00:17:19.315Z,20.40
2022-08-05T00:18:51.813Z,20.40
2022-08-05T00:20:28.976Z,20.40
2022-08-05T00:22:02.531Z,20.30
2022-08-05T00:23:46.060Z,20.30
2022-08-05T00:25:25.393Z,20.30
2022-08-05T00:26:57.590Z,20.20
2022-08-05T00:28:31.036Z,20.10
2022-08-05T00:30:11.531Z,20.10
2022-08-05T00:32:09.332Z,20.10
2022-08-05T00:34:54.017Z,20.10
2022-08-05T00:35:33.439Z,20.00
2022-08-05T00:37:12.028Z,19.90
2022-08-05T00:38:45.847Z,19.90
2022-08-05T00:40:27.299Z,19.90
2022-08-05T00:42:01.656Z,19.90
2022-08-05T00:43:41.642Z,19.90
2022-08-05T00:45:38.735Z,19.90
2022-08-05T00:47:16.395Z,19.80
2022-08-05T00:48:50.715Z,19.80
2022-08-05T00:50:25.285Z,19.80
2022-08-05T00:51:57.876Z,19.80
2022-08-05T00:53:59.959Z,19.80
2022-08-05T00:55:42.455Z,19.70
2022-08-05T00:57:15.974Z,19.70
2022-08-05T00:58:53.975Z,19.70
2022-08-05T01:00:29.935Z,19.70
2022-08-05T01:02:04.404Z,19.70
2022-08-05T01:03:38.740Z,19.70
2022-08-05T01:05:12.751Z,19.70
2022-08-05T01:06:48.951Z,19.60
2022-08-05T01:08:41.694Z,19.60
2022-08-05T01:10:20.765Z,19.60
2022-08-05T01:12:09.297Z,19.60
2022-08-05T01:14:08.856Z,19.60
2022-08-05T01:15:53.967Z,19.60
2022-08-05T01:17:39.876Z,19.50
2022-08-05T01:19:36.657Z,19.50
2022-08-05T01:22:06.700Z,19.50
2022-08-05T01:24:01.616Z,19.50
2022-08-05T01:26:38.080Z,19.50
2022-08-05T01:28:17.946Z,19.40
2022-08-05T01:29:57.121Z,19.40
2022-08-05T01:31:44.917Z,19.50
2022-08-05T01:33:25.401Z,19.50
2022-08-05T01:35:10.880Z,19.50
2022-08-05T01:36:51.144Z,19.50
2022-08-05T01:38:29.084Z,19.50
2022-08-05T01:40:03.559Z,19.40
2022-08-05T01:41:38.108Z,19.50
2022-08-05T01:43:22.418Z,19.40
2022-08-05T01:45:02.285Z,19.40
2022-08-05T01:46:39.172Z,19.40
2022-08-05T01:48:18.200Z,19.40
2022-08-05T01:50:02.160Z,19.30
2022-08-05T01:51:39.313Z,19.30
2022-08-05T01:53:16.894Z,19.30
2022-08-05T01:55:13.415Z,19.30
2022-08-05T01:58:11.542Z,19.20
2022-08-05T01:58:45.033Z,19.20
2022-08-05T02:00:18.805Z,19.30
2022-08-05T02:01:56.207Z,19.30
2022-08-05T02:03:39.006Z,19.20
2022-08-05T02:05:15.527Z,19.20
2022-08-05T02:06:49.183Z,19.20
2022-08-05T02:08:29.650Z,19.10
2022-08-05T02:10:05.657Z,19.10
2022-08-05T02:12:10.965Z,19.10
2022-08-05T02:14:00.061Z,19.10
2022-08-05T02:15:39.208Z,19.00
2022-08-05T02:18:28.726Z,19.00
2022-08-05T02:19:27.712Z,19.00
2022-08-05T02:21:25.322Z,18.90
2022-08-05T02:23:05.639Z,19.00
2022-08-05T02:24:48.067Z,18.90
2022-08-05T02:26:41.126Z,18.90
2022-08-05T02:28:38.111Z,18.90
2022-08-05T02:30:12.691Z,18.90
2022-08-05T02:31:48.424Z,18.90
2022-08-05T02:33:38.342Z,18.90
2022-08-05T02:35:19.058Z,18.90
2022-08-05T02:37:04.552Z,18.90
2022-08-05T02:38:39.147Z,18.80
2022-08-05T02:40:13.182Z,18.90
2022-08-05T02:42:00.429Z,18.90
2022-08-05T02:43:34.454Z,18.90
2022-08-05T02:45:10.188Z,18.80
2022-08-05T02:46:53.835Z,18.90
2022-08-05T02:48:34.439Z,18.80
2022-08-05T02:50:08.414Z,18.90
2022-08-05T02:52:03.370Z,18.90
2022-08-05T02:53:40.414Z,18.80
2022-08-05T02:55:14.381Z,18.80
2022-08-05T02:58:09.192Z,18.80
2022-08-05T02:59:06.006Z,18.90
2022-08-05T03:00:40.236Z,18.90
2022-08-05T03:02:27.539Z,18.80
2022-08-05T03:04:11.756Z,18.90
2022-08-05T03:06:54.786Z,18.90
2022-08-05T03:08:04.501Z,18.90
2022-08-05T03:09:38.429Z,18.90
2022-08-05T03:11:56.690Z,18.80
2022-08-05T03:13:18.247Z,18.90
2022-08-05T03:14:50.377Z,18.90
2022-08-05T03:16:22.714Z,18.90
2022-08-05T03:17:57.485Z,18.90
2022-08-05T03:19:34.054Z,18.90
2022-08-05T03:21:07.389Z,18.90
2022-08-05T03:22:44.169Z,18.90
2022-08-05T03:24:26.894Z,18.90
2022-08-05T03:26:31.918Z,19.00
2022-08-05T03:28:00.161Z,19.00
2022-08-05T03:29:45.854Z,19.00
2022-08-05T03:31:56.476Z,19.00
2022-08-05T03:33:18.948Z,19.20
2022-08-05T03:34:53.587Z,19.40
2022-08-05T03:36:30.075Z,19.60
2022-08-05T03:38:03.265Z,19.90
2022-08-05T03:39:57.759Z,20.10
2022-08-05T03:41:33.115Z,20.30
2022-08-05T03:43:59.149Z,20.50
2022-08-05T03:45:21.575Z,20.80
2022-08-05T03:46:55.064Z,21.00
2022-08-05T03:48:29.366Z,21.20
2022-08-05T03:50:01.808Z,21.40
2022-08-05T03:52:39.291Z,21.60
2022-08-05T03:54:59.318Z,21.80
2022-08-05T03:56:26.956Z,22.10
2022-08-05T03:58:11.144Z,22.50
2022-08-05T03:59:55.903Z,22.70
2022-08-05T04:01:32.522Z,22.80
2022-08-05T04:03:26.559Z,23.10
2022-08-05T04:05:03.260Z,23.30
2022-08-05T04:06:35.860Z,23.60
2022-08-05T04:08:29.647Z,23.80
2022-08-05T04:10:04.150Z,23.90
2022-08-05T04:11:47.395Z,24.10
2022-08-05T04:13:23.931Z,24.20
2022-08-05T04:14:57.743Z,24.40
2022-08-05T04:16:35.397Z,24.40
2022-08-05T04:18:09.810Z,24.60
2022-08-05T04:19:47.107Z,24.80
2022-08-05T04:22:09.882Z,25.00
2022-08-05T04:23:19.354Z,25.30
2022-08-05T04:25:12.957Z,25.70
2022-08-05T04:26:47.428Z,25.90
2022-08-05T04:28:21.022Z,26.20
2022-08-05T04:30:04.458Z,26.40
2022-08-05T04:31:38.696Z,26.30
2022-08-05T04:33:12.155Z,26.20
2022-08-05T04:34:44.281Z,26.30
2022-08-05T04:36:46.569Z,26.00
2022-08-05T04:38:10.162Z,26.10
2022-08-05T04:39:52.936Z,25.70
2022-08-05T04:41:34.049Z,25.70
2022-08-05T04:43:11.012Z,25.90
2022-08-05T04:44:48.760Z,25.90
2022-08-05T04:46:27.988Z,25.90
2022-08-05T04:48:18.676Z,26.10
2022-08-05T04:50:01.793Z,26.30
2022-08-05T04:51:38.829Z,26.30
2022-08-05T04:53:13.320Z,26.30
2022-08-05T04:54:46.198Z,26.10
2022-08-05T04:56:34.524Z,26.00
2022-08-05T04:58:13.253Z,25.70
2022-08-05T04:59:48.127Z,25.60
2022-08-05T05:02:05.564Z,25.40
2022-08-05T05:03:13.026Z,25.40
2022-08-05T05:04:51.417Z,25.40
2022-08-05T05:06:36.044Z,25.20
2022-08-05T05:08:30.262Z,25.30
2022-08-05T05:10:06.304Z,25.20
2022-08-05T05:11:41.623Z,25.10
2022-08-05T05:13:25.176Z,25.10
2022-08-05T05:14:57.292Z,25.30
2022-08-05T05:16:30.400Z,24.90
2022-08-05T05:18:03.632Z,24.90
2022-08-05T05:19:36.968Z,25.00
2022-08-05T05:21:16.522Z,24.70
2022-08-05T05:22:49.199Z,24.60
2022-08-05T05:24:21.753Z,24.60
2022-08-05T05:25:53.930Z,24.50
2022-08-05T05:27:44.166Z,24.60
2022-08-05T05:29:18.099Z,24.70
2022-08-05T05:30:51.764Z,24.70
2022-08-05T05:32:24.513Z,24.70
2022-08-05T05:34:02.390Z,24.80
2022-08-05T05:35:39.556Z,24.70
2022-08-05T05:37:15.195Z,24.60
2022-08-05T05:38:47.924Z,24.60
2022-08-05T05:40:22.978Z,24.70
2022-08-05T05:41:58.299Z,24.80
2022-08-05T05:43:57.662Z,24.80
2022-08-05T05:45:24.713Z,24.80
2022-08-05T05:46:57.877Z,24.70
2022-08-05T05:48:30.453Z,24.60
2022-08-05T05:50:04.687Z,24.70
2022-08-05T05:51:50.006Z,24.90
2022-08-05T05:53:23.056Z,24.80
2022-08-05T05:54:55.242Z,24.90
2022-08-05T05:56:32.528Z,25.00
2022-08-05T05:58:06.241Z,25.10
2022-08-05T05:59:40.359Z,24.90
2022-08-05T06:01:15.348Z,25.00
2022-08-05T06:02:47.992Z,25.10
2022-08-05T06:04:20.203Z,25.30
2022-08-05T06:05:55.677Z,25.50
2022-08-05T06:07:42.119Z,25.20
2022-08-05T06:09:25.783Z,25.20
2022-08-05T06:11:13.555Z,25.40
2022-08-05T06:12:45.745Z,25.40
2022-08-05T06:14:18.047Z,25.40
2022-08-05T06:16:28.596Z,25.00
2022-08-05T06:17:52.402Z,25.20
2022-08-05T06:19:34.658Z,25.40
2022-08-05T06:21:08.123Z,25.50
2022-08-05T06:22:50.901Z,25.70
2022-08-05T06:24:27.299Z,25.80
2022-08-05T06:26:13.422Z,25.60
2022-08-05T06:28:11.918Z,25.50
2022-08-05T06:29:49.520Z,25.50
2022-08-05T06:31:30.473Z,25.40
2022-08-05T06:33:04.386Z,25.30
2022-08-05T06:34:36.561Z,25.30
2022-08-05T06:36:10.408Z,25.40
2022-08-05T06:37:58.144Z,25.60
2022-08-05T06:39:31.370Z,25.70
2022-08-05T06:41:07.814Z,25.80
2022-08-05T06:42:40.646Z,26.00
2022-08-05T06:44:12.800Z,26.20
2022-08-05T06:46:06.707Z,26.30
2022-08-05T06:48:36.459Z,26.30
2022-08-05T06:50:00.738Z,26.20
2022-08-05T06:51:30.150Z,26.30
2022-08-05T06:53:04.056Z,26.70
2022-08-05T06:54:43.998Z,26.50
2022-08-05T06:56:26.492Z,26.60
2022-08-05T06:58:19.672Z,26.50
2022-08-05T06:59:57.883Z,26.70
2022-08-05T07:01:32.313Z,26.60
2022-08-05T07:03:05.132Z,26.40
2022-08-05T07:04:41.852Z,26.40
2022-08-05T07:06:15.298Z,26.30
2022-08-05T07:07:49.147Z,26.30
2022-08-05T07:09:21.526Z,26.60
2022-08-05T07:10:57.207Z,26.70
2022-08-05T07:12:49.154Z,26.60
2022-08-05T07:14:41.173Z,26.60
2022-08-05T07:18:00.302Z,26.70
2022-08-05T07:18:29.287Z,26.70
2022-08-05T07:20:33.797Z,27.10
2022-08-05T07:22:00.690Z,27.40
2022-08-05T07:23:34.431Z,27.10
2022-08-05T07:25:53.955Z,26.80
2022-08-05T07:27:05.458Z,26.90
2022-08-05T07:28:41.164Z,26.80
2022-08-05T07:30:22.858Z,26.40
2022-08-05T07:31:57.735Z,26.50
2022-08-05T07:33:36.878Z,26.40
2022-08-05T07:36:04.849Z,26.50
2022-08-05T07:37:04.828Z,26.50
2022-08-05T07:38:43.340Z,26.30
2022-08-05T07:40:31.662Z,26.20
2022-08-05T07:42:13.933Z,26.30
2022-08-05T07:43:47.702Z,26.50
2022-08-05T07:45:56.265Z,26.70
2022-08-05T07:47:20.972Z,26.70
2022-08-05T07:49:05.433Z,26.50
2022-08-05T07:50:39.055Z,26.40
2022-08-05T07:52:11.296Z,26.60
2022-08-05T07:53:50.341Z,26.70
2022-08-05T07:56:05.669Z,27.00
2022-08-05T07:57:41.818Z,27.00
2022-08-05T07:59:08.690Z,26.40
2022-08-05T08:00:41.114Z,26.80
2022-08-05T08:02:16.513Z,26.90
2022-08-05T08:03:51.318Z,26.80
2022-08-05T08:05:24.020Z,26.90
2022-08-05T08:07:00.888Z,27.10
2022-08-05T08:08:37.843Z,27.30
2022-08-05T08:10:10.283Z,27.30
2022-08-05T08:11:48.239Z,27.30
2022-08-05T08:13:31.697Z,27.30
2022-08-05T08:15:16.120Z,27.50
2022-08-05T08:16:51.055Z,27.60
2022-08-05T08:18:25.547Z,27.50
2022-08-05T08:20:21.697Z,27.30
2022-08-05T08:21:51.185Z,27.30
2022-08-05T08:24:01.161Z,27.50
2022-08-05T08:25:17.800Z,27.60
2022-08-05T08:26:50.845Z,27.70
2022-08-05T08:28:36.427Z,27.40
2022-08-05T08:30:29.433Z,27.60
2022-08-05T08:32:04.367Z,27.90
2022-08-05T08:33:38.359Z,27.80
2022-08-05T08:35:13.544Z,28.00
2022-08-05T08:36:52.384Z,28.20
2022-08-05T08:38:36.044Z,28.10
2022-08-05T08:40:10.992Z,28.10
2022-08-05T08:41:51.783Z,28.00
2022-08-05T08:45:18.466Z,28.20
2022-08-05T08:45:29.695Z,28.20
2022-08-05T08:47:21.811Z,28.00
2022-08-05T08:50:05.915Z,28.10
2022-08-05T08:51:23.114Z,28.00
2022-08-05T08:52:59.608Z,28.30
2022-08-05T08:54:36.510Z,28.30
2022-08-05T08:56:09.315Z,28.60
2022-08-05T08:57:58.148Z,28.60
2022-08-05T08:59:33.534Z,28.60
2022-08-05T09:01:11.064Z,28.70
2022-08-05T09:02:51.044Z,28.70
2022-08-05T09:04:23.901Z,28.70
2022-08-05T09:06:09.220Z,28.50
2022-08-05T09:07:58.104Z,28.50
2022-08-05T09:09:34.727Z,28.50
2022-08-05T09:11:12.234Z,28.40
2022-08-05T09:12:50.847Z,28.60
2022-08-05T09:14:57.812Z,28.50
2022-08-05T09:16:18.694Z,28.70
2022-08-05T09:17:53.049Z,28.60
2022-08-05T09:19:28.049Z,28.90
2022-08-05T09:21:11.426Z,28.90
2022-08-05T09:23:18.887Z,28.80
2022-08-05T09:25:24.077Z,28.70
2022-08-05T09:26:58.831Z,28.70
2022-08-05T09:28:34.025Z,29.00
2022-08-05T09:30:07.940Z,29.00
2022-08-05T09:32:51.841Z,29.00
2022-08-05T09:34:13.079Z,29.10
2022-08-05T09:36:16.169Z,29.30
2022-08-05T09:38:12.918Z,29.20
2022-08-05T09:39:52.271Z,29.10
2022-08-05T09:41:33.241Z,29.20
2022-08-05T09:43:44.005Z,29.50
2022-08-05T09:46:07.106Z,29.60
2022-08-05T09:47:49.063Z,29.30
2022-08-05T09:50:00.823Z,29.50
2022-08-05T09:51:36.509Z,29.60
2022-08-05T09:53:12.068Z,29.80
2022-08-05T09:55:56.794Z,29.90
2022-08-05T09:57:02.090Z,29.90
2022-08-05T09:58:34.242Z,30.00
2022-08-05T10:00:07.873Z,30.20
2022-08-05T10:01:46.510Z,30.30
2022-08-05T10:03:19.166Z,30.00
2022-08-05T10:04:53.624Z,30.00
2022-08-05T10:06:28.054Z,30.00
2022-08-05T10:08:35.030Z,30.00
2022-08-05T10:10:14.197Z,30.10
2022-08-05T10:11:47.970Z,30.30
2022-08-05T10:13:31.574Z,30.20
2022-08-05T10:15:23.975Z,30.10
2022-08-05T10:17:37.967Z,30.20
2022-08-05T10:19:10.074Z,30.00
2022-08-05T10:20:47.975Z,30.00
2022-08-05T10:22:29.892Z,30.20
2022-08-05T10:24:07.572Z,30.00
2022-08-05T10:25:43.247Z,30.20
2022-08-05T10:27:17.131Z,30.00
2022-08-05T10:28:58.452Z,30.30
2022-08-05T10:31:20.783Z,30.60
2022-08-05T10:32:51.963Z,30.50
2022-08-05T10:34:16.880Z,30.60
2022-08-05T10:35:59.803Z,30.70
2022-08-05T10:37:43.915Z,30.70
2022-08-05T10:40:03.611Z,30.90
2022-08-05T10:41:46.419Z,30.60
2022-08-05T10:43:41.367Z,30.80
2022-08-05T10:45:23.424Z,30.90
2022-08-05T10:47:26.540Z,31.00
2022-08-05T10:49:10.484Z,31.10
2022-08-05T10:51:03.428Z,30.80
2022-08-05T10:52:58.700Z,30.70
2022-08-05T10:54:56.144Z,31.00
2022-08-05T10:56:53.112Z,31.10
2022-08-05T10:58:47.886Z,30.90
2022-08-05T11:00:23.299Z,30.80
2022-08-05T11:02:37.705Z,31.00
2022-08-05T11:04:17.388Z,31.10
2022-08-05T11:06:15.266Z,31.20
2022-08-05T11:08:01.742Z,31.00
2022-08-05T11:09:46.299Z,31.10
2022-08-05T11:11:44.288Z,31.30
2022-08-05T11:13:57.878Z,31.30
2022-08-05T11:16:00.156Z,31.00
2022-08-05T11:17:59.134Z,31.10
2022-08-05T11:20:09.985Z,31.10
2022-08-05T11:21:49.007Z,31.20
2022-08-05T11:24:04.648Z,31.20
2022-08-05T11:26:05.212Z,31.00
2022-08-05T11:27:45.775Z,31.20
2022-08-05T11:29:42.159Z,31.60
2022-08-05T11:31:19.520Z,31.50
2022-08-05T11:33:43.886Z,31.70
2022-08-05T11:36:07.752Z,31.70
2022-08-05T11:38:30.912Z,31.50
2022-08-05T11:40:00.441Z,31.10
2022-08-05T11:42:00.681Z,31.10
2022-08-05T11:44:04.622Z,31.10
2022-08-05T11:46:30.593Z,31.30
2022-08-05T11:47:49.265Z,31.50
2022-08-05T11:49:20.827Z,31.50
2022-08-05T11:50:54.163Z,31.70
2022-08-05T11:52:31.029Z,31.40
2022-08-05T11:54:03.923Z,31.30
2022-08-05T11:55:36.769Z,31.30
2022-08-05T11:57:24.322Z,31.30
2022-08-05T11:58:58.488Z,31.30
2022-08-05T12:00:31.885Z,31.50
2022-08-05T12:02:24.248Z,31.40
2022-08-05T12:04:00.332Z,31.60
2022-08-05T12:05:39.730Z,31.70
2022-08-05T12:07:16.222Z,32.10
2022-08-05T12:08:52.955Z,32.30
2022-08-05T12:10:38.603Z,32.30
2022-08-05T12:12:27.818Z,31.80
2022-08-05T12:14:04.971Z,31.90
2022-08-05T12:15:38.308Z,32.00
2022-08-05T12:17:42.229Z,32.10
2022-08-05T12:19:11.254Z,31.90
2022-08-05T12:21:16.428Z,32.00
2022-08-05T12:22:51.857Z,32.60
2022-08-05T12:24:24.602Z,33.00
2022-08-05T12:25:57.305Z,33.40
2022-08-05T12:27:33.474Z,33.60
2022-08-05T12:29:09.344Z,34.00
2022-08-05T12:30:45.878Z,33.30
2022-08-05T12:32:18.479Z,33.20
2022-08-05T12:33:54.964Z,33.10
2022-08-05T12:35:39.377Z,33.10
2022-08-05T12:37:17.691Z,32.40
2022-08-05T12:38:55.059Z,32.50
2022-08-05T12:40:29.703Z,32.40
2022-08-05T12:42:03.082Z,32.40
2022-08-05T12:43:35.924Z,32.50
2022-08-05T12:45:11.905Z,32.50
2022-08-05T12:46:54.412Z,32.50
2022-08-05T12:48:32.564Z,32.40
2022-08-05T12:50:19.809Z,32.30
2022-08-05T12:52:12.323Z,32.30
2022-08-05T12:53:47.343Z,32.30
2022-08-05T12:55:26.473Z,32.60
2022-08-05T12:57:03.763Z,32.90
2022-08-05T12:58:48.441Z,33.20
2022-08-05T13:02:02.135Z,33.60
2022-08-05T13:02:30.460Z,33.90
2022-08-05T13:04:07.566Z,34.20
2022-08-05T13:05:42.065Z,34.40
2022-08-05T13:07:23.804Z,34.60
2022-08-05T13:09:13.471Z,34.30
2022-08-05T13:10:46.468Z,34.20
2022-08-05T13:12:28.417Z,34.40
2022-08-05T13:14:04.539Z,34.70
2022-08-05T13:15:50.951Z,34.80
2022-08-05T13:17:31.837Z,35.00
2022-08-05T13:19:14.687Z,35.20
2022-08-05T13:20:50.091Z,35.20
2022-08-05T13:22:29.366Z,35.40
2022-08-05T13:24:02.174Z,35.40
2022-08-05T13:25:52.412Z,35.10
2022-08-05T13:27:42.136Z,34.10
2022-08-05T13:29:19.039Z,34.00
2022-08-05T13:30:53.494Z,34.10
2022-08-05T13:32:29.315Z,33.80
2022-08-05T13:34:24.756Z,33.50
2022-08-05T13:35:57.957Z,33.40
2022-08-05T13:37:35.125Z,33.50
2022-08-05T13:39:24.178Z,33.50
2022-08-05T13:41:00.716Z,33.40
2022-08-05T13:42:33.033Z,33.80
2022-08-05T13:44:05.595Z,33.80
2022-08-05T13:45:43.073Z,33.20
2022-08-05T13:47:35.661Z,33.50
2022-08-05T13:49:10.398Z,33.40
2022-08-05T13:50:44.344Z,33.60
2022-08-05T13:52:29.048Z,33.80
2022-08-05T13:54:01.798Z,34.00
2022-08-05T13:55:42.004Z,34.30
2022-08-05T13:57:25.075Z,34.40
2022-08-05T13:58:57.888Z,34.50
2022-08-05T14:00:38.293Z,34.50
2022-08-05T14:02:19.724Z,34.30
2022-08-05T14:04:11.331Z,34.10
2022-08-05T14:06:04.760Z,34.00
2022-08-05T14:08:01.222Z,34.10
2022-08-05T14:09:34.929Z,34.20
2022-08-05T14:11:20.460Z,34.50
2022-08-05T14:12:54.603Z,34.10
2022-08-05T14:14:32.307Z,34.20
2022-08-05T14:16:11.303Z,34.10
2022-08-05T14:17:44.149Z,34.00
2022-08-05T14:19:20.189Z,34.00
2022-08-05T14:20:55.397Z,33.70
2022-08-05T14:22:30.463Z,34.00
2022-08-05T14:24:08.942Z,34.00
2022-08-05T14:25:45.025Z,34.10
2022-08-05T14:27:18.591Z,34.20
2022-08-05T14:28:52.291Z,33.90
2022-08-05T14:30:26.419Z,34.10
2022-08-05T14:32:12.268Z,33.50
2022-08-05T14:33:59.936Z,33.30
2022-08-05T14:35:50.517Z,33.70
2022-08-05T14:37:47.412Z,33.60
2022-08-05T14:39:23.149Z,33.50
2022-08-05T14:40:56.827Z,33.40
2022-08-05T14:42:28.967Z,33.70
2022-08-05T14:44:09.789Z,33.90
2022-08-05T14:45:53.320Z,33.90
2022-08-05T14:48:03.501Z,34.10
2022-08-05T14:49:18.142Z,34.20
2022-08-05T14:50:50.257Z,34.30
2022-08-05T14:52:50.126Z,34.40
2022-08-05T14:54:30.227Z,34.40
2022-08-05T14:56:06.083Z,34.50
2022-08-05T14:57:56.313Z,34.50
2022-08-05T14:59:35.597Z,34.50
2022-08-05T15:01:15.613Z,34.50
2022-08-05T15:02:48.670Z,34.50
2022-08-05T15:04:23.755Z,34.50
2022-08-05T15:06:07.720Z,34.50
2022-08-05T15:08:11.269Z,34.50
2022-08-05T15:09:51.597Z,34.30
2022-08-05T15:11:51.372Z,34.40
2022-08-05T15:13:19.196Z,34.30
2022-08-05T15:15:00.835Z,34.30
2022-08-05T15:16:33.877Z,34.40
2022-08-05T15:18:07.852Z,34.50
2022-08-05T15:19:39.988Z,34.60
2022-08-05T15:21:21.460Z,34.50
2022-08-05T15:22:54.895Z,34.20
2022-08-05T15:24:28.161Z,34.30
2022-08-05T15:26:03.232Z,34.40
2022-08-05T15:27:36.222Z,34.30
2022-08-05T15:29:08.494Z,34.30
2022-08-05T15:30:41.484Z,34.40
2022-08-05T15:32:16.415Z,34.40
2022-08-05T15:34:06.209Z,34.30
2022-08-05T15:35:45.215Z,34.00
2022-08-05T15:37:22.001Z,34.00
2022-08-05T15:41:03.338Z,34.10
2022-08-05T15:41:21.210Z,34.10
2022-08-05T15:43:02.541Z,34.10
2022-08-05T15:44:45.358Z,33.90
2022-08-05T15:46:20.638Z,33.80
2022-08-05T15:47:57.675Z,33.60
2022-08-05T15:49:48.297Z,33.80
2022-08-05T15:52:12.679Z,33.70
2022-08-05T15:53:19.721Z,33.80
2022-08-05T15:54:53.620Z,33.80
2022-08-05T15:56:28.912Z,33.80
2022-08-05T15:58:03.112Z,33.80
2022-08-05T15:59:38.218Z,33.80
2022-08-05T16:01:17.352Z,33.70
2022-08-05T16:02:51.052Z,33.70
2022-08-05T16:04:25.268Z,33.70
2022-08-05T16:05:58.108Z,33.80
2022-08-05T16:07:30.478Z,33.60
2022-08-05T16:09:03.484Z,33.70
2022-08-05T16:10:35.692Z,33.80
2022-08-05T16:12:09.065Z,33.60
2022-08-05T16:13:41.726Z,33.60
2022-08-05T16:15:18.587Z,33.40
2022-08-05T16:16:51.597Z,33.40
2022-08-05T16:18:28.972Z,33.40
2022-08-05T16:20:04.312Z,33.40
2022-08-05T16:22:01.133Z,33.40
2022-08-05T16:23:53.809Z,33.30
2022-08-05T16:25:34.196Z,33.30
2022-08-05T16:27:08.797Z,33.20
2022-08-05T16:28:41.300Z,33.00
2022-08-05T16:30:25.867Z,32.80
2022-08-05T16:31:59.759Z,32.80
2022-08-05T16:33:41.793Z,32.70
2022-08-05T16:35:14.192Z,32.80
2022-08-05T16:36:48.462Z,32.80
2022-08-05T16:38:25.294Z,32.70
2022-08-05T16:40:06.497Z,32.60
2022-08-05T16:42:15.146Z,32.50
2022-08-05T16:43:35.819Z,32.30
2022-08-05T16:46:04.549Z,32.10
2022-08-05T16:47:03.746Z,32.20
2022-08-05T16:48:38.564Z,32.20
2022-08-05T16:50:12.892Z,32.20
2022-08-05T16:51:50.275Z,32.00
2022-08-05T16:54:02.076Z,31.90
2022-08-05T16:55:16.725Z,32.00
2022-08-05T16:56:52.386Z,31.90
2022-08-05T16:58:24.901Z,32.00
2022-08-05T17:00:02.990Z,31.90
2022-08-05T17:01:53.816Z,31.90
2022-08-05T17:03:28.220Z,31.80
2022-08-05T17:05:03.568Z,31.70
2022-08-05T17:06:35.814Z,31.70
2022-08-05T17:08:14.435Z,31.50
2022-08-05T17:10:07.349Z,31.50
2022-08-05T17:11:48.620Z,31.30
2022-08-05T17:13:37.726Z,31.20
2022-08-05T17:15:15.417Z,31.10
2022-08-05T17:16:53.874Z,31.00
2022-08-05T17:18:26.460Z,30.90
2022-08-05T17:20:07.782Z,30.80
2022-08-05T17:21:51.573Z,30.70
2022-08-05T17:24:05.510Z,30.50
2022-08-05T17:25:22.453Z,30.50
2022-08-05T17:27:07.053Z,30.30
2022-08-05T17:28:39.236Z,30.20
2022-08-05T17:30:19.050Z,30.10
2022-08-05T17:32:00.877Z,30.00
2022-08-05T17:33:39.103Z,30.00
2022-08-05T17:35:21.347Z,29.90
2022-08-05T17:36:53.500Z,29.80
2022-08-05T17:38:25.923Z,29.80
2022-08-05T17:40:00.022Z,29.70
2022-08-05T17:42:20.051Z,29.60
2022-08-05T17:43:47.249Z,29.50
2022-08-05T17:45:20.891Z,29.40
2022-08-05T17:46:53.605Z,29.30
2022-08-05T17:48:26.187Z,29.10
2022-08-05T17:50:04.077Z,29.00
2022-08-05T17:51:40.181Z,28.90
2022-08-05T17:53:12.793Z,28.90
2022-08-05T17:54:46.879Z,28.80
2022-08-05T17:56:19.595Z,28.70
2022-08-05T17:57:55.060Z,28.60
2022-08-05T17:59:27.275Z,28.60
2022-08-05T18:01:00.831Z,28.60
2022-08-05T18:02:34.235Z,28.50
2022-08-05T18:04:06.842Z,28.40
2022-08-05T18:05:44.284Z,28.40
2022-08-05T18:07:25.705Z,28.30
2022-08-05T18:09:14.522Z,28.20
2022-08-05T18:10:47.113Z,28.10
2022-08-05T18:12:19.331Z,28.00
2022-08-05T18:13:56.531Z,28.00
2022-08-05T18:15:34.447Z,27.90
2022-08-05T18:17:59.600Z,27.90
2022-08-05T18:19:00.867Z,27.70
2022-08-05T18:20:33.238Z,27.70
2022-08-05T18:22:08.646Z,27.60
2022-08-05T18:23:47.022Z,27.60
2022-08-05T18:25:19.569Z,27.50
2022-08-05T18:26:54.936Z,27.50
2022-08-05T18:28:28.381Z,27.50
2022-08-05T18:30:00.849Z,27.40
2022-08-05T18:31:35.466Z,27.40
2022-08-05T18:33:08.656Z,27.40
2022-08-05T18:34:46.117Z,27.30
2022-08-05T18:36:19.260Z,27.20
2022-08-05T18:37:51.576Z,27.20
2022-08-05T18:40:29.840Z,27.20
2022-08-05T18:41:55.344Z,27.10
2022-08-05T18:43:16.410Z,27.00
2022-08-05T18:44:55.667Z,27.00
2022-08-05T18:46:29.129Z,27.00
2022-08-05T18:48:01.649Z,26.90
2022-08-05T18:49:57.846Z,26.90
2022-08-05T18:52:04.849Z,26.90
2022-08-05T18:53:42.937Z,26.80
2022-08-05T18:55:18.163Z,26.70
2022-08-05T18:56:52.158Z,26.70
2022-08-05T18:58:28.866Z,26.60
2022-08-05T19:00:11.620Z,26.50
2022-08-05T19:01:58.479Z,26.50
2022-08-05T19:03:53.003Z,26.50
2022-08-05T19:06:11.240Z,26.40
2022-08-05T19:07:16.015Z,26.40
2022-08-05T19:08:48.426Z,26.40
2022-08-05T19:10:26.474Z,26.40
2022-08-05T19:12:01.599Z,26.30
2022-08-05T19:13:35.955Z,26.30
2022-08-05T19:15:10.596Z,26.20
2022-08-05T19:17:02.844Z,26.20
2022-08-05T19:18:39.724Z,26.20
2022-08-05T19:20:15.054Z,26.10
2022-08-05T19:21:47.686Z,26.10
2022-08-05T19:24:05.456Z,26.10
2022-08-05T19:25:29.527Z,26.10
2022-08-05T19:27:03.990Z,26.00
2022-08-05T19:28:43.356Z,26.00
2022-08-05T19:30:16.842Z,26.00
2022-08-05T19:31:53.013Z,26.00
2022-08-05T19:33:35.696Z,25.90
2022-08-05T19:35:09.604Z,25.90
2022-08-05T19:36:42.573Z,25.90
2022-08-05T19:38:14.955Z,25.90
2022-08-05T19:39:50.988Z,25.90
2022-08-05T19:41:58.434Z,25.90
2022-08-05T19:43:31.310Z,25.80
2022-08-05T19:45:09.543Z,25.80
2022-08-05T19:46:47.263Z,25.70
2022-08-05T19:48:22.657Z,25.70
2022-08-05T19:49:57.337Z,25.70
2022-08-05T19:52:04.696Z,25.70
2022-08-05T19:54:04.105Z,25.70
2022-08-05T19:56:13.898Z,25.70
2022-08-05T19:57:09.560Z,25.70
2022-08-05T19:58:54.030Z,25.70
2022-08-05T20:00:27.220Z,25.70
2022-08-05T20:02:01.415Z,25.60
2022-08-05T20:03:38.892Z,25.60
2022-08-05T20:05:16.601Z,25.60
2022-08-05T20:06:57.268Z,25.60
2022-08-05T20:08:31.249Z,25.50
2022-08-05T20:10:13.521Z,25.50
2022-08-05T20:11:48.169Z,25.50
2022-08-05T20:13:54.499Z,25.40
2022-08-05T20:15:13.725Z,25.40
2022-08-05T20:16:47.050Z,25.40
2022-08-05T20:18:32.819Z,25.30
2022-08-05T20:20:09.512Z,25.30
2022-08-05T20:21:43.498Z,25.30
2022-08-05T20:23:16.976Z,25.30
2022-08-05T20:24:51.856Z,25.20
2022-08-05T20:26:26.576Z,25.20
2022-08-05T20:27:59.600Z,25.10
2022-08-05T20:29:33.691Z,25.10
2022-08-05T20:31:07.584Z,25.20
2022-08-05T20:32:45.157Z,25.10
2022-08-05T20:34:17.733Z,25.10
2022-08-05T20:35:49.936Z,25.10
2022-08-05T20:38:04.796Z,25.00
2022-08-05T20:39:16.487Z,25.00
2022-08-05T20:40:50.549Z,25.00
2022-08-05T20:42:22.949Z,25.00
2022-08-05T20:44:08.121Z,25.00
2022-08-05T20:45:57.137Z,25.00
2022-08-05T20:47:33.424Z,25.00
2022-08-05T20:49:06.261Z,25.00
2022-08-05T20:50:45.297Z,25.00
2022-08-05T20:52:19.176Z,25.00
2022-08-05T20:53:56.745Z,24.90
2022-08-05T20:55:56.310Z,25.00
2022-08-05T20:57:42.228Z,24.90
2022-08-05T20:59:19.155Z,24.90
2022-08-05T21:00:59.166Z,24.90
2022-08-05T21:02:37.413Z,24.90
2022-08-05T21:04:12.109Z,24.90
2022-08-05T21:05:53.637Z,24.90
2022-08-05T21:07:26.920Z,24.90
2022-08-05T21:09:19.478Z,24.90
2022-08-05T21:10:51.877Z,25.00
2022-08-05T21:12:26.707Z,24.90
2022-08-05T21:13:59.170Z,24.90
2022-08-05T21:15:34.059Z,24.90
2022-08-05T21:17:06.671Z,25.00
2022-08-05T21:18:38.931Z,25.00
2022-08-05T21:20:32.762Z,25.00
2022-08-05T21:22:06.155Z,25.00
2022-08-05T21:23:41.784Z,25.00
2022-08-05T21:25:13.960Z,25.00
2022-08-05T21:26:53.567Z,25.00
2022-08-05T21:28:30.989Z,25.00
2022-08-05T21:30:04.341Z,25.00
2022-08-05T21:31:41.372Z,25.00
2022-08-05T21:33:22.444Z,25.00
2022-08-05T21:35:17.288Z,25.00
2022-08-05T21:36:49.830Z,25.00
2022-08-05T21:38:22.322Z,25.00
2022-08-05T21:39:54.505Z,25.00
2022-08-05T21:41:32.949Z,25.00
2022-08-05T21:43:06.391Z,24.90
2022-08-05T21:44:40.740Z,24.90